Time;durP1;ratioP1;P1;durP2;ratioP2;P2;SDS_P1;SDS_P2;PMS_P1;PMS_P2;Temp;Humidity;BMP_temperature;BMP_pressure;BME280_temperature;BME280_humidity;BME280_pressure;Samples;Min_cycle;Max_cycle;Signal;HPM_P1;HPM_P2
2021/08/26 00:08:13;;;;;;;4.22;2.50;;;;;;;27.74;22.96;97635.53;4989109;28;20081;-86
2021/08/26 00:10:39;;;;;;;3.83;2.13;;;;;;;28.01;22.21;97629.13;4997872;28;20091;-87
2021/08/26 00:13:07;;;;;;;5.68;2.95;;;;;;;28.36;21.59;97638.81;5031033;28;20444;-87
2021/08/26 00:15:34;;;;;;;6.72;2.45;;;;;;;28.29;21.29;97629.88;5030593;28;20033;-87
2021/08/26 00:18:00;;;;;;;5.30;2.63;;;;;;;28.26;21.27;97620.34;5028982;28;20038;-86
2021/08/26 00:20:27;;;;;;;5.32;3.03;;;;;;;28.23;21.64;97615.63;5030414;28;20083;-87
2021/08/26 00:22:53;;;;;;;5.65;2.40;;;;;;;28.18;21.98;97613.44;5030353;28;20060;-87
2021/08/26 00:25:19;;;;;;;4.53;2.80;;;;;;;28.15;22.23;97605.13;5030933;28;20115;-87
2021/08/26 00:27:45;;;;;;;5.63;2.35;;;;;;;27.82;22.63;97602.16;5030755;28;20029;-87
2021/08/26 00:30:11;;;;;;;4.28;2.63;;;;;;;27.97;22.11;97603.09;5031055;28;20045;-87
2021/08/26 00:32:37;;;;;;;4.88;2.40;;;;;;;28.04;21.69;97592.28;5030750;28;20056;-86
2021/08/26 00:35:04;;;;;;;4.85;2.60;;;;;;;27.99;22.00;97590.09;5029633;28;20029;-87
2021/08/26 00:37:30;;;;;;;4.60;2.45;;;;;;;27.75;22.78;97586.31;5030423;28;20038;-86
2021/08/26 00:39:56;;;;;;;5.28;2.47;;;;;;;27.15;23.87;97596.56;5030049;28;20397;-86
2021/08/26 00:42:23;;;;;;;4.47;2.42;;;;;;;27.32;23.11;97583.78;5031112;28;20150;-87
2021/08/26 00:44:49;;;;;;;4.25;2.47;;;;;;;27.33;23.26;97582.50;5030760;28;20486;-86
2021/08/26 00:47:15;;;;;;;3.85;1.92;;;;;;;27.55;22.81;97571.13;5023409;28;20485;-86
2021/08/26 00:49:42;;;;;;;4.70;2.10;;;;;;;27.65;22.94;97569.88;5029647;28;20448;-86
2021/08/26 00:52:11;;;;;;;4.10;2.17;;;;;;;27.69;23.02;97570.50;5028983;28;20036;-86
2021/08/26 00:54:38;;;;;;;3.28;2.22;;;;;;;27.88;22.36;97570.03;5030440;28;20036;-86
2021/08/26 00:57:04;;;;;;;3.90;2.03;;;;;;;27.94;22.16;97570.16;5033993;28;20646;-86
2021/08/26 00:59:32;;;;;;;6.57;1.88;;;;;;;28.07;22.10;97570.81;5033984;28;20098;-86
2021/08/26 01:02:20;;;;;;;3.97;2.22;;;;;;;27.92;22.59;97561.38;5033745;28;20041;-87
2021/08/26 01:04:51;;;;;;;2.85;1.75;;;;;;;28.04;22.73;97563.28;5033193;28;20025;-87
2021/08/26 01:07:25;;;;;;;4.72;2.08;;;;;;;27.84;22.70;97552.44;5034412;28;20118;-87
2021/08/26 01:10:01;;;;;;;3.35;1.95;;;;;;;27.49;23.36;97556.88;5032973;28;20167;-87
2021/08/26 01:12:30;;;;;;;2.78;1.95;;;;;;;27.50;23.14;97560.47;5017120;28;20038;-87
2021/08/26 01:14:56;;;;;;;2.85;1.90;;;;;;;27.27;23.59;97561.84;5033946;28;20034;-87
2021/08/26 01:17:27;;;;;;;4.30;2.05;;;;;;;27.06;23.97;97563.53;5034938;28;20029;-87
2021/08/26 01:19:54;;;;;;;6.25;2.45;;;;;;;27.15;23.62;97562.75;5034111;28;20393;-87
2021/08/26 01:22:23;;;;;;;3.08;1.70;;;;;;;27.23;23.07;97555.59;5034473;28;20036;-87
2021/08/26 01:24:56;;;;;;;2.90;2.05;;;;;;;27.54;22.85;97547.78;5033561;28;20033;-87
2021/08/26 01:27:25;;;;;;;2.97;1.60;;;;;;;27.56;22.79;97548.13;5033805;28;20060;-86
2021/08/26 01:29:51;;;;;;;4.60;2.00;;;;;;;27.55;23.02;97549.34;5034211;28;20025;-86
2021/08/26 01:32:22;;;;;;;2.90;1.70;;;;;;;26.89;23.93;97550.19;5033421;28;20340;-86
2021/08/26 01:34:52;;;;;;;2.85;1.98;;;;;;;26.79;24.20;97546.56;5030773;28;20079;-86
2021/08/26 01:37:19;;;;;;;2.75;1.90;;;;;;;26.96;23.84;97538.59;5034095;28;20120;-87
2021/08/26 01:39:47;;;;;;;3.33;2.25;;;;;;;27.04;23.90;97534.25;5033868;28;20033;-87
2021/08/26 01:42:14;;;;;;;4.93;2.72;;;;;;;26.54;24.50;97538.31;5032698;28;20035;-87
2021/08/26 01:44:40;;;;;;;4.10;1.63;;;;;;;26.42;24.59;97536.41;5034049;28;20036;-86
2021/08/26 01:47:09;;;;;;;3.20;1.77;;;;;;;27.00;24.09;97537.22;5033508;28;20042;-86
2021/08/26 01:49:35;;;;;;;4.43;2.08;;;;;;;27.68;23.20;97524.56;5016153;28;20033;-86
2021/08/26 01:52:01;;;;;;;2.60;1.83;;;;;;;28.01;22.74;97530.34;5032939;28;20441;-86
2021/08/26 01:54:27;;;;;;;5.47;2.03;;;;;;;28.22;22.44;97528.56;5033675;28;20044;-87
2021/08/26 01:56:55;;;;;;;3.30;1.73;;;;;;;28.29;22.32;97522.56;5033150;28;20057;-86
2021/08/26 01:59:21;;;;;;;4.00;2.10;;;;;;;28.42;22.17;97523.97;5033581;28;20072;-86
2021/08/26 02:01:47;;;;;;;2.45;1.38;;;;;;;28.45;22.35;97517.34;5033476;28;20041;-86
2021/08/26 02:04:13;;;;;;;3.13;1.77;;;;;;;28.42;21.99;97520.34;5033114;28;20041;-87
2021/08/26 02:06:39;;;;;;;4.20;1.95;;;;;;;28.34;22.31;97507.81;5032537;28;20041;-86
2021/08/26 02:09:05;;;;;;;2.63;1.77;;;;;;;28.21;22.21;97498.78;5033121;28;20100;-87
2021/08/26 02:11:31;;;;;;;3.03;1.70;;;;;;;28.32;22.80;97499.84;5017752;28;20037;-87
2021/08/26 02:13:57;;;;;;;4.88;2.25;;;;;;;28.40;22.60;97491.81;5033502;28;20210;-87
2021/08/26 02:16:23;;;;;;;3.58;1.88;;;;;;;28.29;22.55;97497.16;5033291;28;20074;-87
2021/08/26 02:18:49;;;;;;;3.40;2.22;;;;;;;28.40;22.74;97488.97;5033483;28;20104;-87
2021/08/26 02:21:15;;;;;;;4.13;1.48;;;;;;;28.14;22.85;97482.19;5032155;28;20057;-87
2021/08/26 02:23:41;;;;;;;4.18;2.08;;;;;;;28.02;23.20;97483.94;5032558;28;20030;-86
2021/08/26 02:26:07;;;;;;;3.17;1.92;;;;;;;28.10;23.13;97475.94;5032752;28;20037;-87
2021/08/26 02:28:33;;;;;;;3.92;2.40;;;;;;;28.14;23.10;97471.69;5038416;28;20033;-86
2021/08/26 02:31:00;;;;;;;6.18;2.83;;;;;;;27.95;23.54;97456.03;5032806;28;20041;-87
2021/08/26 02:33:26;;;;;;;2.97;2.22;;;;;;;27.89;23.44;97461.53;5030989;28;20080;-87
2021/08/26 02:35:52;;;;;;;3.70;2.42;;;;;;;27.66;23.71;97458.59;5029376;28;20041;-86
2021/08/26 02:38:18;;;;;;;4.05;2.25;;;;;;;27.80;23.73;97458.72;5032404;28;20034;-86
2021/08/26 02:40:44;;;;;;;3.47;2.05;;;;;;;27.84;23.72;97450.88;5033139;28;20053;-86
2021/08/26 02:43:10;;;;;;;4.10;2.03;;;;;;;27.77;23.91;97447.63;5031424;28;20052;-87
2021/08/26 02:45:36;;;;;;;5.93;2.22;;;;;;;27.25;24.78;97437.50;5031552;28;20026;-87
2021/08/26 02:48:02;;;;;;;4.50;2.80;;;;;;;26.88;25.42;97442.38;5032190;28;20072;-87
2021/08/26 02:50:28;;;;;;;3.50;2.22;;;;;;;27.10;25.25;97434.53;5032617;28;20037;-86
2021/08/26 02:52:54;;;;;;;4.38;2.08;;;;;;;27.51;24.57;97427.47;5032200;28;20025;-86
2021/08/26 02:55:20;;;;;;;3.28;2.10;;;;;;;27.82;24.29;97436.47;5032449;28;20159;-87
2021/08/26 02:57:46;;;;;;;2.95;2.30;;;;;;;27.39;24.72;97426.41;5032177;28;20036;-86
2021/08/26 03:00:13;;;;;;;3.97;2.00;;;;;;;27.66;24.60;97428.38;5032199;28;20059;-87
2021/08/26 03:02:39;;;;;;;5.05;2.53;;;;;;;28.03;24.18;97432.66;5032063;28;20493;-86
2021/08/26 03:05:05;;;;;;;2.40;2.13;;;;;;;28.38;23.65;97426.56;5032443;28;20044;-86
2021/08/26 03:07:31;;;;;;;2.17;1.73;;;;;;;28.32;23.71;97420.78;5014176;28;20030;-86
2021/08/26 03:09:57;;;;;;;4.13;2.85;;;;;;;27.83;24.72;97426.75;5032241;28;20118;-86
2021/08/26 03:12:23;;;;;;;2.17;1.55;;;;;;;28.15;24.20;97422.41;5032827;28;20072;-86
2021/08/26 03:14:49;;;;;;;3.03;1.85;;;;;;;28.19;24.19;97425.88;5031760;28;20496;-86
2021/08/26 03:17:15;;;;;;;2.38;1.77;;;;;;;28.13;24.08;97418.50;5031225;28;20033;-86
2021/08/26 03:19:41;;;;;;;2.85;1.60;;;;;;;28.43;23.75;97423.84;5031065;28;20756;-86
2021/08/26 03:22:07;;;;;;;4.03;1.77;;;;;;;28.79;23.64;97413.59;5031507;28;20041;-86
2021/08/26 03:24:33;;;;;;;2.40;1.52;;;;;;;28.90;23.50;97411.00;5031701;28;20033;-86
2021/08/26 03:26:59;;;;;;;4.47;1.88;;;;;;;29.11;23.29;97416.31;5031994;28;20030;-86
2021/08/26 03:29:25;;;;;;;2.92;1.75;;;;;;;29.28;22.95;97408.19;5030866;28;20043;-86
2021/08/26 03:31:51;;;;;;;3.00;1.77;;;;;;;29.09;23.40;97410.38;5028116;28;20050;-86
2021/08/26 03:34:17;;;;;;;3.15;2.05;;;;;;;29.07;23.48;97406.47;5028589;28;20069;-86
2021/08/26 03:36:43;;;;;;;2.92;1.48;;;;;;;29.12;23.33;97409.41;5031466;28;20037;-86
2021/08/26 03:39:09;;;;;;;3.58;1.70;;;;;;;29.02;23.28;97402.25;5030749;28;20037;-86
2021/08/26 03:41:35;;;;;;;3.00;1.50;;;;;;;29.33;23.15;97399.81;5032505;28;20519;-86
2021/08/26 03:44:01;;;;;;;2.22;1.20;;;;;;;29.53;22.63;97395.50;5031238;28;20060;-86
2021/08/26 03:46:28;;;;;;;2.55;1.50;;;;;;;29.70;22.63;97402.25;5031634;28;20029;-86
2021/08/26 03:48:54;;;;;;;1.98;1.25;;;;;;;29.66;22.70;97396.00;5031072;28;20443;-86
2021/08/26 03:51:20;;;;;;;4.28;1.75;;;;;;;29.58;22.98;97403.31;5031010;28;20029;-86
2021/08/26 03:53:46;;;;;;;2.45;1.50;;;;;;;29.20;23.40;97398.50;5031216;28;20689;-86
2021/08/26 03:56:12;;;;;;;2.00;1.00;;;;;;;29.44;23.25;97393.56;5030889;28;20825;-86
2021/08/26 03:58:38;;;;;;;3.92;1.55;;;;;;;29.65;23.09;97392.41;5031064;28;20048;-86
2021/08/26 04:01:07;;;;;;;3.47;1.55;;;;;;;29.92;22.84;97385.69;5031391;28;20037;-86
2021/08/26 04:03:33;;;;;;;2.55;1.30;;;;;;;30.06;22.66;97396.16;5031252;28;20037;-86
2021/08/26 04:06:00;;;;;;;2.78;1.40;;;;;;;29.93;22.82;97396.50;5030898;28;20385;-86
2021/08/26 04:08:27;;;;;;;2.92;1.48;;;;;;;29.85;23.17;97380.41;5032048;28;20029;-86
2021/08/26 04:10:53;;;;;;;2.80;1.50;;;;;;;30.08;22.77;97388.00;5031536;28;20366;-86
2021/08/26 04:13:20;;;;;;;3.50;1.60;;;;;;;30.20;22.93;97386.84;5031694;28;20091;-86
2021/08/26 04:15:49;;;;;;;2.42;1.38;;;;;;;30.20;22.74;97378.38;5030310;28;20064;-86
2021/08/26 04:18:16;;;;;;;3.80;1.88;;;;;;;29.81;23.58;97379.81;5031106;28;20042;-86
2021/08/26 04:20:43;;;;;;;6.25;2.42;;;;;;;29.51;23.79;97383.91;5031107;28;20045;-86
2021/08/26 04:23:09;;;;;;;3.25;1.23;;;;;;;29.67;23.68;97378.53;5031633;28;20037;-86
2021/08/26 04:25:35;;;;;;;2.15;1.60;;;;;;;29.61;23.53;97377.69;5030581;28;20033;-88
2021/08/26 04:28:01;;;;;;;2.75;1.27;;;;;;;29.63;24.31;97375.13;5030714;28;20036;-85
2021/08/26 04:30:27;;;;;;;2.72;1.60;;;;;;;29.75;23.47;97371.22;5032813;28;20037;-86
2021/08/26 04:32:53;;;;;;;3.20;2.55;;;;;;;29.42;23.74;97368.63;5035348;28;20057;-85
2021/08/26 04:35:19;;;;;;;6.15;1.75;;;;;;;29.74;23.84;97371.69;5035523;28;20116;-85
2021/08/26 04:37:45;;;;;;;1.70;1.33;;;;;;;30.18;23.10;97378.09;5034332;28;20057;-87
2021/08/26 04:40:11;;;;;;;4.32;1.55;;;;;;;30.49;23.14;97369.03;5035874;28;20042;-84
2021/08/26 04:42:37;;;;;;;1.85;1.20;;;;;;;30.53;22.97;97373.19;5034710;28;20555;-85
2021/08/26 04:45:04;;;;;;;1.95;1.58;;;;;;;30.57;23.26;97373.00;5033816;28;20029;-84
2021/08/26 04:47:30;;;;;;;2.55;1.52;;;;;;;30.11;23.75;97370.00;5030489;28;20052;-86
2021/08/26 04:49:56;;;;;;;2.00;1.55;;;;;;;30.22;23.64;97370.19;5035071;28;20034;-86
2021/08/26 04:52:22;;;;;;;2.63;1.55;;;;;;;30.15;23.94;97367.75;5032945;28;20041;-85
2021/08/26 04:54:48;;;;;;;2.65;1.40;;;;;;;30.29;23.74;97369.78;5016695;28;20029;-88
2021/08/26 04:57:14;;;;;;;2.40;1.67;;;;;;;30.41;23.45;97370.72;5015215;28;20087;-87
2021/08/26 04:59:40;;;;;;;3.03;1.73;;;;;;;30.42;23.64;97373.06;5035619;28;20045;-87
2021/08/26 05:02:06;;;;;;;2.53;1.48;;;;;;;30.44;23.51;97381.06;5032050;28;20539;-85
2021/08/26 05:04:32;;;;;;;1.95;1.10;;;;;;;30.48;23.31;97371.06;5033161;28;20393;-88
2021/08/26 05:06:58;;;;;;;1.92;1.20;;;;;;;30.58;23.39;97368.88;5033702;28;20030;-89
2021/08/26 05:09:24;;;;;;;2.22;1.85;;;;;;;30.33;24.12;97363.91;5035021;28;20504;-87
2021/08/26 05:11:55;;;;;;;2.88;1.60;;;;;;;29.89;24.35;97364.78;5032033;28;20033;-88
2021/08/26 05:14:21;;;;;;;;;;;;;;;29.40;25.06;97365.50;5034431;28;20053;-88
2021/08/26 05:16:47;;;;;;;1.60;1.20;;;;;;;29.40;25.20;97367.53;5033934;28;19917;-87
2021/08/26 05:19:13;;;;;;;2.85;1.83;;;;;;;29.34;25.38;97363.81;5033650;28;20036;-88
2021/08/26 05:21:39;;;;;;;3.03;1.58;;;;;;;29.56;25.44;97369.88;5033951;28;20045;-90
2021/08/26 05:24:06;;;;;;;2.05;1.33;;;;;;;29.83;24.93;97357.47;5033684;28;20030;-88
2021/08/26 05:26:32;;;;;;;1.55;1.00;;;;;;;29.99;24.78;97362.63;5033705;28;20414;-86
2021/08/26 05:28:58;;;;;;;2.05;1.33;;;;;;;30.17;24.59;97361.59;5032076;28;20136;-89
2021/08/26 05:31:24;;;;;;;4.20;2.58;;;;;;;30.03;24.59;97357.53;5032840;28;20121;-88
2021/08/26 05:33:50;;;;;;;1.67;1.20;;;;;;;30.16;25.00;97357.19;5031805;28;20033;-89
2021/08/26 05:36:16;;;;;;;2.63;2.25;;;;;;;29.49;25.70;97353.28;5032104;28;20083;-88
2021/08/26 05:38:42;;;;;;;1.88;1.40;;;;;;;29.25;26.08;97353.38;5026186;28;20109;-89
2021/08/26 05:41:08;;;;;;;2.05;1.15;;;;;;;29.15;26.40;97354.69;5032588;28;20073;-86
2021/08/26 05:43:34;;;;;;;2.97;1.38;;;;;;;29.43;25.83;97353.19;5033809;28;20044;-90
2021/08/26 05:46:00;;;;;;;2.13;1.48;;;;;;;29.70;25.87;97345.66;5034255;28;20021;-91
2021/08/26 05:48:28;;;;;;;1.98;1.20;;;;;;;29.58;25.93;97344.69;5034043;28;20111;-92
2021/08/26 05:50:54;;;;;;;2.38;1.90;;;;;;;29.10;26.10;97349.72;5032068;28;20022;-88
2021/08/26 05:53:20;;;;;;;2.78;1.80;;;;;;;29.43;26.24;97341.09;5030271;28;20036;-87
2021/08/26 05:55:47;;;;;;;1.75;1.20;;;;;;;29.60;25.88;97341.38;5031816;28;20029;-88
2021/08/26 05:58:14;;;;;;;3.33;1.52;;;;;;;29.53;26.30;97342.56;5033393;28;20508;-88
2021/08/26 06:00:40;;;;;;;2.33;1.60;;;;;;;28.92;26.75;97327.28;5031897;28;20124;-88
2021/08/26 06:03:06;;;;;;;2.53;1.65;;;;;;;28.80;27.08;97336.81;5033891;28;20061;-88
2021/08/26 06:05:32;;;;;;;2.85;2.00;;;;;;;29.22;26.70;97340.22;5033980;28;20040;-88
2021/08/26 06:07:58;;;;;;;2.97;2.38;;;;;;;29.42;25.94;97343.16;5030128;28;20033;-87
2021/08/26 06:10:24;;;;;;;2.38;1.80;;;;;;;29.62;26.32;97339.59;5031279;28;20107;-89
2021/08/26 06:12:50;;;;;;;2.58;2.17;;;;;;;29.41;26.38;97338.75;5033079;28;20033;-87
2021/08/26 06:15:16;;;;;;;3.72;1.92;;;;;;;29.61;26.11;97338.06;5028081;28;20057;-87
2021/08/26 06:17:43;;;;;;;4.63;2.58;;;;;;;29.89;26.06;97341.38;5026336;28;20104;-86
2021/08/26 06:20:12;;;;;;;4.10;1.58;;;;;;;30.02;25.61;97339.75;5021956;28;20067;-87
2021/08/26 06:22:38;;;;;;;3.97;1.85;;;;;;;30.39;25.02;97342.09;5017372;28;20026;-88
2021/08/26 06:25:06;;;;;;;3.05;1.92;;;;;;;30.53;24.57;97339.19;5022097;28;20099;-88
2021/08/26 06:27:32;;;;;;;2.95;1.98;;;;;;;30.23;25.39;97343.41;5026218;28;20443;-88
2021/08/26 06:29:59;;;;;;;2.35;1.52;;;;;;;30.18;25.97;97349.00;5030211;28;20037;-88
2021/08/26 06:32:25;;;;;;;1.58;1.45;;;;;;;30.53;25.64;97350.53;5028616;28;20057;-90
2021/08/26 06:34:51;;;;;;;3.20;1.08;;;;;;;31.15;24.37;97344.34;5029089;28;20481;-91
2021/08/26 06:37:17;;;;;;;1.85;1.20;;;;;;;31.47;23.72;97350.06;5032863;28;20501;-90
2021/08/26 06:39:44;;;;;;;2.00;1.20;;;;;;;31.67;23.93;97353.59;5033004;28;20034;-95
2021/08/26 06:42:10;;;;;;;3.00;1.45;;;;;;;31.81;24.07;97346.25;5038378;28;20061;-93
2021/08/26 06:44:36;;;;;;;3.85;1.73;;;;;;;31.86;24.50;97349.13;5031611;28;20036;-89
2021/08/26 06:47:02;;;;;;;2.10;1.35;;;;;;;31.94;24.65;97347.38;5034347;28;20099;-93
2021/08/26 06:49:28;;;;;;;2.25;1.30;;;;;;;31.63;25.03;97341.72;5012843;28;20041;-91
2021/08/26 06:51:54;;;;;;;2.58;1.63;;;;;;;31.69;24.87;97342.56;5032340;28;20026;-88
2021/08/26 06:54:20;;;;;;;4.38;1.75;;;;;;;31.84;25.08;97346.00;5028242;28;20049;-88
2021/08/26 06:56:46;;;;;;;2.53;1.52;;;;;;;32.09;24.40;97342.34;5033705;28;20045;-86
2021/08/26 06:59:13;;;;;;;3.08;1.77;;;;;;;31.95;25.01;97348.94;5033092;28;20515;-85
2021/08/26 07:01:39;;;;;;;2.38;1.60;;;;;;;31.87;24.28;97350.69;5031610;28;20030;-87
2021/08/26 07:04:05;;;;;;;1.63;1.10;;;;;;;31.83;25.04;97340.84;5032145;28;20543;-88
2021/08/26 07:06:31;;;;;;;3.30;1.58;;;;;;;32.12;24.85;97343.38;5029760;28;20048;-86
2021/08/26 07:08:58;;;;;;;2.38;1.55;;;;;;;32.37;24.71;97347.44;5031400;28;20498;-86
2021/08/26 07:11:24;;;;;;;1.73;1.10;;;;;;;32.35;24.37;97347.91;5032855;28;20432;-88
2021/08/26 07:13:50;;;;;;;7.75;3.60;;;;;;;32.52;24.46;97343.13;5030971;28;20072;-87
2021/08/26 07:16:16;;;;;;;3.80;1.90;;;;;;;32.22;24.64;97335.44;5031820;28;20036;-89
2021/08/26 07:18:42;;;;;;;2.83;1.83;;;;;;;31.87;25.16;97345.00;5032475;28;20091;-89
2021/08/26 07:21:08;;;;;;;2.00;1.60;;;;;;;31.78;25.48;97350.09;5031863;28;20106;-87
2021/08/26 07:23:34;;;;;;;2.88;1.65;;;;;;;32.02;25.04;97356.25;5013352;28;20045;-86
2021/08/26 07:26:00;;;;;;;3.17;1.95;;;;;;;32.46;24.34;97359.38;5030700;28;20037;-86
2021/08/26 07:28:26;;;;;;;3.45;1.45;;;;;;;32.83;24.33;97349.97;5032250;28;20041;-87
2021/08/26 07:30:52;;;;;;;3.80;1.85;;;;;;;32.71;24.25;97352.00;5029709;28;20029;-87
2021/08/26 07:33:19;;;;;;;4.75;1.63;;;;;;;32.61;25.17;97350.66;5035004;28;20057;-86
2021/08/26 07:35:45;;;;;;;3.00;2.00;;;;;;;32.23;25.43;97357.66;5031567;28;20078;-86
2021/08/26 07:38:11;;;;;;;4.15;1.90;;;;;;;32.11;25.69;97355.28;5030313;28;20033;-86
2021/08/26 07:40:37;;;;;;;3.70;1.67;;;;;;;32.21;24.64;97346.03;5033136;28;20094;-87
2021/08/26 07:43:03;;;;;;;2.10;1.17;;;;;;;32.54;24.92;97346.25;5028958;28;20120;-86
2021/08/26 07:45:30;;;;;;;2.47;1.40;;;;;;;32.78;23.69;97348.69;5029935;28;20029;-86
2021/08/26 07:47:56;;;;;;;2.97;1.23;;;;;;;33.10;23.72;97355.78;5030113;28;20477;-86
2021/08/26 07:50:22;;;;;;;1.88;1.20;;;;;;;33.22;23.80;97348.84;5031944;28;20033;-86
2021/08/26 07:52:48;;;;;;;2.42;1.70;;;;;;;33.16;23.56;97344.44;5027817;28;20025;-86
2021/08/26 07:55:14;;;;;;;1.80;1.23;;;;;;;33.14;24.11;97344.94;5012200;28;20393;-87
2021/08/26 07:57:41;;;;;;;2.85;1.65;;;;;;;33.25;23.87;97344.97;5030578;28;20029;-88
2021/08/26 08:00:07;;;;;;;3.92;1.30;;;;;;;33.49;23.88;97338.78;5033055;28;20037;-87
2021/08/26 08:02:33;;;;;;;2.88;1.55;;;;;;;33.26;23.73;97340.81;5030528;28;20029;-88
2021/08/26 08:04:59;;;;;;;1.98;1.33;;;;;;;33.30;24.36;97341.34;5029860;28;20032;-87
2021/08/26 08:07:25;;;;;;;1.85;1.40;;;;;;;33.34;23.83;97339.03;5031113;28;20026;-86
2021/08/26 08:09:52;;;;;;;1.88;1.25;;;;;;;33.42;24.32;97347.84;5031201;28;20037;-87
2021/08/26 08:12:18;;;;;;;2.45;1.38;;;;;;;33.18;24.90;97341.84;5030784;28;20030;-92
2021/08/26 08:14:45;;;;;;;2.47;1.45;;;;;;;33.37;25.42;97342.91;5030430;28;20121;-88
2021/08/26 08:17:11;;;;;;;3.20;1.42;;;;;;;33.30;24.95;97341.34;5030528;28;20037;-87
2021/08/26 08:19:38;;;;;;;1.85;1.70;;;;;;;33.50;24.37;97348.09;5030004;28;20039;-89
2021/08/26 08:22:04;;;;;;;2.08;1.45;;;;;;;33.42;24.95;97345.75;5029108;28;20030;-88
2021/08/26 08:24:30;;;;;;;3.67;1.88;;;;;;;33.35;24.62;97343.41;5027808;28;20056;-89
2021/08/26 08:26:57;;;;;;;2.90;2.05;;;;;;;33.26;24.06;97345.72;5026743;28;20101;-90
2021/08/26 08:29:23;;;;;;;2.35;1.33;;;;;;;33.39;24.29;97346.81;5029122;28;20116;-90
2021/08/26 08:31:49;;;;;;;2.85;1.70;;;;;;;33.17;25.34;97345.97;5028938;28;20497;-88
2021/08/26 08:34:15;;;;;;;2.22;1.33;;;;;;;33.32;25.30;97350.16;5028591;28;20464;-84
2021/08/26 08:36:42;;;;;;;2.72;1.48;;;;;;;33.61;24.81;97351.00;5012224;28;20025;-87
2021/08/26 08:39:08;;;;;;;2.30;1.30;;;;;;;33.85;24.65;97343.47;5030074;28;20041;-87
2021/08/26 08:41:34;;;;;;;1.95;1.33;;;;;;;34.04;24.49;97340.91;5022933;28;20034;-87
2021/08/26 08:44:01;;;;;;;2.85;1.05;;;;;;;34.08;24.47;97344.25;5019039;28;20029;-90
2021/08/26 08:46:28;;;;;;;2.72;1.65;;;;;;;33.95;23.66;97344.00;5026767;28;20038;-86
2021/08/26 08:48:56;;;;;;;2.63;1.50;;;;;;;33.96;24.20;97352.00;5025599;28;20029;-87
2021/08/26 08:51:23;;;;;;;2.65;1.60;;;;;;;34.05;24.29;97348.91;5020457;28;20065;-89
2021/08/26 08:53:50;;;;;;;1.45;0.98;;;;;;;34.21;24.41;97357.97;5028433;28;20046;-88
2021/08/26 08:56:17;;;;;;;2.53;1.45;;;;;;;34.10;24.19;97350.19;5021938;28;20077;-88
2021/08/26 08:58:43;;;;;;;2.40;1.45;;;;;;;33.89;23.46;97352.53;5027976;28;20029;-89
2021/08/26 09:01:13;;;;;;;3.05;1.80;;;;;;;33.78;23.98;97357.44;5029218;28;20041;-84
2021/08/26 09:03:39;;;;;;;2.00;1.50;;;;;;;33.33;24.10;97353.75;5019887;28;20033;-84
2021/08/26 09:06:08;;;;;;;2.55;1.65;;;;;;;32.82;24.51;97363.41;5029209;28;20577;-84
2021/08/26 09:08:35;;;;;;;2.15;1.42;;;;;;;32.64;25.36;97358.19;5027608;28;20549;-84
2021/08/26 09:11:20;;;;;;;3.63;1.73;;;;;;;32.13;25.11;97362.00;5027399;28;20040;-85
2021/08/26 09:13:47;;;;;;;1.80;1.30;;;;;;;31.77;24.97;97357.81;5033047;28;20083;-84
2021/08/26 09:16:15;;;;;;;2.40;1.60;;;;;;;32.00;25.66;97358.78;5028946;28;20033;-84
2021/08/26 09:18:42;;;;;;;2.63;1.60;;;;;;;32.13;25.59;97358.38;5031091;28;20505;-83
2021/08/26 09:21:10;;;;;;;1.73;1.25;;;;;;;32.37;25.47;97356.72;5032874;28;20037;-84
2021/08/26 09:24:01;;;;;;;1.90;1.30;;;;;;;32.63;24.54;97356.63;5031630;28;20485;-84
2021/08/26 09:26:28;;;;;;;3.35;1.95;;;;;;;32.90;24.10;97360.88;5032091;28;20041;-84
2021/08/26 09:29:00;;;;;;;4.07;1.35;;;;;;;32.80;24.40;97357.47;5014970;28;20628;-84
2021/08/26 09:31:28;;;;;;;2.88;1.45;;;;;;;32.11;25.02;97360.94;5034384;28;20038;-84
2021/08/26 09:34:05;;;;;;;2.17;1.50;;;;;;;32.15;24.70;97356.59;5026396;28;20702;-84
2021/08/26 09:36:48;;;;;;;3.00;1.60;;;;;;;32.19;24.65;97353.50;5008446;28;20084;-85
2021/08/26 09:39:29;;;;;;;3.38;1.20;;;;;;;32.29;24.39;97358.47;5008378;28;20416;-84
2021/08/26 09:42:05;;;;;;;2.85;1.40;;;;;;;32.18;24.90;97358.44;5015300;28;20068;-85
2021/08/26 09:44:34;;;;;;;1.73;0.93;;;;;;;32.48;24.23;97358.84;5030086;28;20036;-84
2021/08/26 09:47:02;;;;;;;2.85;1.50;;;;;;;32.18;25.03;97351.97;5030619;28;20123;-85
2021/08/26 09:49:31;;;;;;;1.40;1.10;;;;;;;32.71;24.51;97352.00;5028887;28;20025;-85
2021/08/26 09:52:04;;;;;;;1.63;1.00;;;;;;;32.62;24.16;97355.06;5018704;28;20037;-83
2021/08/26 09:54:30;;;;;;;1.30;0.98;;;;;;;32.96;23.95;97356.75;5036283;28;20499;-83
2021/08/26 09:56:58;;;;;;;1.40;1.08;;;;;;;33.02;23.64;97359.66;5029377;28;20105;-83
2021/08/26 10:00:03;;;;;;;1.17;1.00;;;;;;;32.59;24.21;97361.78;5029293;28;20133;-84
2021/08/26 10:02:31;;;;;;;2.70;1.13;;;;;;;32.52;24.12;97353.72;5020923;28;20062;-84
2021/08/26 10:04:58;;;;;;;1.80;0.98;;;;;;;32.40;24.19;97355.69;5025078;28;20040;-83
2021/08/26 10:07:26;;;;;;;1.38;0.98;;;;;;;32.57;24.08;97359.44;5027380;28;20124;-83
2021/08/26 10:09:53;;;;;;;1.02;0.80;;;;;;;32.93;23.83;97354.91;5027136;28;20070;-83
2021/08/26 10:12:19;;;;;;;1.60;0.98;;;;;;;32.80;24.17;97366.00;5024639;28;20449;-83
2021/08/26 10:14:52;;;;;;;4.22;0.90;;;;;;;33.13;23.81;97360.47;5023153;28;20025;-84
2021/08/26 10:17:19;;;;;;;1.70;1.17;;;;;;;33.35;23.61;97359.75;5031957;28;20108;-84
2021/08/26 10:19:47;;;;;;;3.67;1.20;;;;;;;33.53;23.39;97358.47;5032185;28;20037;-83
2021/08/26 10:22:14;;;;;;;1.35;0.70;;;;;;;33.59;22.70;97354.34;5031197;28;20109;-83
2021/08/26 10:24:41;;;;;;;1.73;0.95;;;;;;;33.28;23.11;97355.31;5033004;28;20030;-83
2021/08/26 10:27:14;;;;;;;1.52;0.90;;;;;;;32.78;23.51;97348.69;5031283;28;20390;-84
2021/08/26 10:29:51;;;;;;;1.55;1.02;;;;;;;32.17;24.54;97356.06;5014757;28;20037;-83
2021/08/26 10:32:19;;;;;;;1.73;1.00;;;;;;;32.54;23.94;97354.78;5029050;28;20517;-84
2021/08/26 10:35:08;;;;;;;1.88;1.20;;;;;;;32.71;24.30;97358.47;5028277;28;20029;-84
2021/08/26 10:37:53;;;;;;;1.73;1.00;;;;;;;33.16;23.24;97364.34;5034803;28;20385;-83
2021/08/26 10:40:30;;;;;;;1.00;0.90;;;;;;;33.34;23.79;97358.94;5024241;28;20038;-84
2021/08/26 10:42:57;;;;;;;2.15;0.90;;;;;;;32.82;22.68;97363.41;5027170;28;20044;-84
2021/08/26 10:45:26;;;;;;;1.33;0.90;;;;;;;33.11;23.30;97365.09;5028418;28;20064;-85
2021/08/26 10:47:53;;;;;;;2.00;1.00;;;;;;;33.30;22.51;97358.41;5029839;28;20041;-85
2021/08/26 10:50:21;;;;;;;1.55;1.08;;;;;;;33.26;22.71;97362.81;5031550;28;20033;-83
2021/08/26 10:52:57;;;;;;;1.05;0.90;;;;;;;33.06;22.78;97371.56;5031780;28;20033;-83
2021/08/26 10:55:41;;;;;;;1.83;0.88;;;;;;;33.03;22.85;97359.13;5028874;28;20056;-84
2021/08/26 10:58:23;;;;;;;1.13;0.80;;;;;;;33.03;23.18;97349.81;5030926;28;20029;-84
2021/08/26 11:00:54;;;;;;;1.48;0.90;;;;;;;33.12;22.30;97353.19;5030041;28;20095;-84
2021/08/26 11:03:36;;;;;;;1.58;0.70;;;;;;;33.12;23.35;97352.41;5027791;28;20516;-84
2021/08/26 11:06:14;;;;;;;1.30;0.77;;;;;;;33.09;22.69;97351.41;5029968;28;20517;-85
2021/08/26 11:08:43;;;;;;;1.10;0.80;;;;;;;33.24;22.47;97354.00;5027517;28;20030;-85
2021/08/26 11:11:27;;;;;;;0.88;0.70;;;;;;;32.90;22.59;97352.34;5027126;28;20496;-84
2021/08/26 11:14:03;;;;;;;9.70;1.20;;;;;;;32.74;22.72;97354.59;5028524;28;20033;-84
2021/08/26 11:16:29;;;;;;;1.55;0.82;;;;;;;32.72;22.97;97364.94;5029687;28;20037;-84
2021/08/26 11:19:08;;;;;;;1.27;0.80;;;;;;;32.70;23.40;97362.59;5032877;28;20045;-83
2021/08/26 11:21:43;;;;;;;1.73;0.90;;;;;;;32.97;23.22;97363.22;5028425;28;20048;-83
2021/08/26 11:24:16;;;;;;;1.35;0.98;;;;;;;32.93;22.89;97362.69;5028503;28;20049;-82
2021/08/26 11:26:49;;;;;;;1.85;0.82;;;;;;;32.98;23.45;97359.09;5034563;28;20022;-82
2021/08/26 11:29:21;;;;;;;0.80;0.80;;;;;;;33.49;23.25;97355.88;5022013;28;20092;-83
2021/08/26 11:31:57;;;;;;;0.93;0.63;;;;;;;33.75;22.54;97358.50;5025194;28;20060;-83
2021/08/26 11:34:39;;;;;;;0.80;0.80;;;;;;;33.75;22.72;97349.97;5021873;28;20124;-84
2021/08/26 11:37:09;;;;;;;1.50;0.80;;;;;;;33.53;22.79;97356.41;5024066;28;20052;-83
2021/08/26 11:39:36;;;;;;;1.27;0.82;;;;;;;33.45;23.50;97349.63;5031196;28;20576;-83
2021/08/26 11:42:05;;;;;;;1.15;0.82;;;;;;;33.77;22.80;97350.97;5026093;28;20042;-83
2021/08/26 11:44:32;;;;;;;1.15;0.80;;;;;;;33.91;22.87;97357.72;5001563;28;20494;-84